CKK2177 ZSPD-ZSJN
Flight info
| Callsign | CKK2177 |
|---|---|
| Flight time | N/A |
| Altitude | 34100 |
| Route | PIK81D/17L PIKAS G330 PIMOL A593 ABTUB ABTUB6W |
| Aircraft | B77L/H-SDE1E2E3FGHIJ2J3J4J5M1RWXY/LB1D1 |
Departure
| Time | N/A |
|---|---|
| Airport | Shanghai Pudong International Airport (ZSPD) |
Arrival
| Time | 2026-04-25 12:39 |
|---|---|
| Airport | Jinan Yaoqiang International Airport (ZSJN) |
| Time | Latitude | Longitude | Altitude | Speed | Heading |
|---|---|---|---|---|---|
| 2026-04-25 12:05 | 34.75864 | 117.82636 | 32127 ft | 424 kts | 345° |
| 2026-04-25 12:05 | 34.78693 | 117.81616 | 32126 ft | 422 kts | 345° |
| 2026-04-25 12:06 | 34.84266 | 117.79595 | 32121 ft | 404 kts | 344° |
| 2026-04-25 12:06 | 34.89124 | 117.77815 | 32115 ft | 410 kts | 344° |
| 2026-04-25 12:07 | 34.94179 | 117.75967 | 32120 ft | 407 kts | 344° |
| 2026-04-25 12:07 | 34.99585 | 117.73988 | 32114 ft | 407 kts | 344° |
| 2026-04-25 12:08 | 35.04995 | 117.72006 | 32111 ft | 404 kts | 344° |
| 2026-04-25 12:08 | 35.10403 | 117.70023 | 32117 ft | 405 kts | 344° |
| 2026-04-25 12:09 | 35.15211 | 117.68260 | 32130 ft | 407 kts | 344° |
| 2026-04-25 12:09 | 35.19639 | 117.66634 | 32130 ft | 405 kts | 344° |
| 2026-04-25 12:10 | 35.25014 | 117.64658 | 32141 ft | 405 kts | 344° |
| 2026-04-25 12:10 | 35.30377 | 117.62683 | 32139 ft | 404 kts | 344° |
| 2026-04-25 12:11 | 35.35709 | 117.60717 | 32135 ft | 386 kts | 344° |
| 2026-04-25 12:11 | 35.40800 | 117.58838 | 31995 ft | 384 kts | 344° |
| 2026-04-25 12:12 | 35.43368 | 117.57889 | 31140 ft | 389 kts | 344° |
| 2026-04-25 12:12 | 35.45979 | 117.56924 | 29939 ft | 401 kts | 343° |
| 2026-04-25 12:12 | 35.48667 | 117.55930 | 28833 ft | 410 kts | 343° |
| 2026-04-25 12:12 | 35.51399 | 117.54918 | 28128 ft | 409 kts | 343° |
| 2026-04-25 12:13 | 35.54119 | 117.53910 | 27687 ft | 402 kts | 343° |
| 2026-04-25 12:13 | 35.56783 | 117.52921 | 27163 ft | 398 kts | 343° |
| 2026-04-25 12:13 | 35.59403 | 117.51949 | 26518 ft | 397 kts | 343° |
| 2026-04-25 12:13 | 35.62052 | 117.50966 | 25811 ft | 398 kts | 343° |
| 2026-04-25 12:14 | 35.64706 | 117.49979 | 25176 ft | 396 kts | 343° |
| 2026-04-25 12:14 | 35.67335 | 117.49002 | 24598 ft | 393 kts | 343° |
| 2026-04-25 12:14 | 35.69930 | 117.48036 | 24016 ft | 390 kts | 343° |
| 2026-04-25 12:14 | 35.72515 | 117.47074 | 23395 ft | 389 kts | 343° |
| 2026-04-25 12:15 | 35.75103 | 117.46110 | 22764 ft | 388 kts | 343° |
| 2026-04-25 12:15 | 35.77681 | 117.45148 | 22185 ft | 386 kts | 343° |
| 2026-04-25 12:15 | 35.80216 | 117.44202 | 21649 ft | 383 kts | 343° |
| 2026-04-25 12:15 | 35.82761 | 117.43253 | 21113 ft | 379 kts | 343° |
| 2026-04-25 12:16 | 35.85259 | 117.42319 | 20561 ft | 377 kts | 343° |
| 2026-04-25 12:16 | 35.87762 | 117.41383 | 20001 ft | 375 kts | 343° |
| 2026-04-25 12:16 | 35.90255 | 117.40450 | 19441 ft | 373 kts | 343° |
| 2026-04-25 12:16 | 35.92707 | 117.39532 | 18925 ft | 369 kts | 343° |
| 2026-04-25 12:17 | 35.95161 | 117.38613 | 18412 ft | 367 kts | 343° |
| 2026-04-25 12:17 | 35.97591 | 117.37702 | 17859 ft | 365 kts | 343° |
| 2026-04-25 12:17 | 36.00053 | 117.36993 | 17280 ft | 364 kts | 352° |
| 2026-04-25 12:17 | 36.02587 | 117.36765 | 16714 ft | 362 kts | 359° |
| 2026-04-25 12:18 | 36.05104 | 117.36763 | 16216 ft | 359 kts | 359° |
| 2026-04-25 12:18 | 36.07563 | 117.36771 | 15710 ft | 357 kts | 359° |
| 2026-04-25 12:18 | 36.10048 | 117.36777 | 15180 ft | 355 kts | 359° |
| 2026-04-25 12:18 | 36.12496 | 117.36781 | 14692 ft | 353 kts | 359° |
| 2026-04-25 12:19 | 36.16587 | 117.36786 | 13875 ft | 348 kts | 359° |
| 2026-04-25 12:19 | 36.19790 | 117.36788 | 13234 ft | 345 kts | 359° |
| 2026-04-25 12:19 | 36.22157 | 117.36789 | 12704 ft | 344 kts | 359° |
| 2026-04-25 12:20 | 36.24562 | 117.36790 | 12184 ft | 342 kts | 359° |
| 2026-04-25 12:20 | 36.26936 | 117.36791 | 11671 ft | 341 kts | 359° |
| 2026-04-25 12:20 | 36.29304 | 117.36793 | 11145 ft | 340 kts | 359° |
| 2026-04-25 12:20 | 36.31665 | 117.36794 | 10613 ft | 340 kts | 359° |
| 2026-04-25 12:21 | 36.34054 | 117.36795 | 10119 ft | 338 kts | 359° |
| 2026-04-25 12:21 | 36.36369 | 117.36797 | 9782 ft | 332 kts | 359° |
| 2026-04-25 12:21 | 36.38628 | 117.36798 | 9696 ft | 318 kts | 359° |
| 2026-04-25 12:21 | 36.40818 | 117.36800 | 9647 ft | 303 kts | 359° |
| 2026-04-25 12:22 | 36.42858 | 117.36801 | 9635 ft | 288 kts | 359° |
| 2026-04-25 12:22 | 36.44838 | 117.36802 | 9588 ft | 275 kts | 359° |
| 2026-04-25 12:22 | 36.46725 | 117.36803 | 9313 ft | 273 kts | 359° |
| 2026-04-25 12:22 | 36.48642 | 117.36803 | 8937 ft | 274 kts | 359° |
| 2026-04-25 12:23 | 36.50552 | 117.36803 | 8585 ft | 274 kts | 359° |
| 2026-04-25 12:23 | 36.52463 | 117.36804 | 8243 ft | 274 kts | 359° |
| 2026-04-25 12:23 | 36.54370 | 117.36805 | 7900 ft | 274 kts | 359° |
| 2026-04-25 12:23 | 36.56265 | 117.36807 | 7565 ft | 274 kts | 359° |
| 2026-04-25 12:24 | 36.58193 | 117.36812 | 7209 ft | 275 kts | 359° |
| 2026-04-25 12:24 | 36.60113 | 117.36816 | 6884 ft | 275 kts | 359° |
| 2026-04-25 12:24 | 36.62002 | 117.36820 | 6581 ft | 274 kts | 359° |
| 2026-04-25 12:24 | 36.63913 | 117.36824 | 6261 ft | 274 kts | 359° |
| 2026-04-25 12:25 | 36.65834 | 117.36828 | 5934 ft | 274 kts | 359° |
| 2026-04-25 12:25 | 36.67743 | 117.36832 | 5605 ft | 275 kts | 359° |
| 2026-04-25 12:25 | 36.69657 | 117.36836 | 5288 ft | 275 kts | 359° |
| 2026-04-25 12:25 | 36.71574 | 117.36840 | 4950 ft | 276 kts | 359° |
| 2026-04-25 12:26 | 36.73515 | 117.36844 | 4618 ft | 277 kts | 359° |
| 2026-04-25 12:26 | 36.75443 | 117.36848 | 4330 ft | 276 kts | 359° |
| 2026-04-25 12:26 | 36.77345 | 117.36852 | 4009 ft | 277 kts | 359° |
| 2026-04-25 12:26 | 36.79288 | 117.36856 | 3691 ft | 278 kts | 359° |
| 2026-04-25 12:27 | 36.81227 | 117.36860 | 3382 ft | 278 kts | 359° |
| 2026-04-25 12:27 | 36.83161 | 117.36863 | 3081 ft | 278 kts | 359° |
| 2026-04-25 12:27 | 36.85064 | 117.36866 | 3071 ft | 265 kts | 359° |
| 2026-04-25 12:27 | 36.86860 | 117.36869 | 3069 ft | 252 kts | 359° |
| 2026-04-25 12:28 | 36.88559 | 117.36871 | 3072 ft | 240 kts | 359° |
| 2026-04-25 12:28 | 36.90234 | 117.36873 | 3076 ft | 239 kts | 358° |
| 2026-04-25 12:28 | 36.91891 | 117.36874 | 3073 ft | 238 kts | 358° |
| 2026-04-25 12:28 | 36.93558 | 117.36876 | 3076 ft | 238 kts | 358° |
| 2026-04-25 12:29 | 36.95218 | 117.36877 | 3074 ft | 237 kts | 358° |
| 2026-04-25 12:29 | 36.96873 | 117.36880 | 3073 ft | 238 kts | 358° |
| 2026-04-25 12:29 | 36.98521 | 117.36881 | 3074 ft | 237 kts | 358° |
| 2026-04-25 12:29 | 37.00171 | 117.36884 | 3072 ft | 240 kts | 358° |
| 2026-04-25 12:30 | 37.01853 | 117.36886 | 3071 ft | 239 kts | 358° |
| 2026-04-25 12:30 | 37.03510 | 117.36888 | 3074 ft | 239 kts | 358° |
| 2026-04-25 12:30 | 37.05176 | 117.36891 | 3073 ft | 238 kts | 358° |
| 2026-04-25 12:30 | 37.06737 | 117.36562 | 3064 ft | 221 kts | 332° |
| 2026-04-25 12:31 | 37.07968 | 117.35506 | 3061 ft | 206 kts | 305° |
| 2026-04-25 12:31 | 37.08699 | 117.34058 | 3059 ft | 191 kts | 281° |
| 2026-04-25 12:31 | 37.08938 | 117.32481 | 3081 ft | 183 kts | 262° |
| 2026-04-25 12:31 | 37.08744 | 117.30991 | 3056 ft | 161 kts | 243° |
| 2026-04-25 12:32 | 37.08271 | 117.29787 | 3064 ft | 152 kts | 236° |
| 2026-04-25 12:32 | 37.07770 | 117.28648 | 3067 ft | 148 kts | 233° |
| 2026-04-25 12:32 | 37.07229 | 117.27547 | 3074 ft | 147 kts | 232° |
| 2026-04-25 12:32 | 37.06690 | 117.26466 | 3073 ft | 146 kts | 232° |
| 2026-04-25 12:33 | 37.06154 | 117.25391 | 3067 ft | 146 kts | 232° |
| 2026-04-25 12:33 | 37.05613 | 117.24306 | 3063 ft | 146 kts | 231° |
| 2026-04-25 12:33 | 37.05077 | 117.23231 | 3063 ft | 146 kts | 231° |
| 2026-04-25 12:33 | 37.04478 | 117.22205 | 3050 ft | 143 kts | 216° |
| 2026-04-25 12:34 | 37.03619 | 117.21605 | 3034 ft | 139 kts | 190° |
| 2026-04-25 12:34 | 37.02688 | 117.21584 | 3029 ft | 133 kts | 181° |
| 2026-04-25 12:34 | 37.01778 | 117.21603 | 2857 ft | 128 kts | 183° |
| 2026-04-25 12:34 | 37.01196 | 117.21603 | 2751 ft | 122 kts | 183° |
| 2026-04-25 12:35 | 37.00077 | 117.21599 | 2563 ft | 120 kts | 183° |
| 2026-04-25 12:35 | 36.99231 | 117.21599 | 2409 ft | 122 kts | 183° |
| 2026-04-25 12:35 | 36.98383 | 117.21598 | 2252 ft | 121 kts | 183° |
| 2026-04-25 12:35 | 36.97536 | 117.21599 | 2087 ft | 121 kts | 184° |
| 2026-04-25 12:36 | 36.96694 | 117.21599 | 1931 ft | 120 kts | 184° |
| 2026-04-25 12:36 | 36.95864 | 117.21599 | 1773 ft | 119 kts | 184° |
| 2026-04-25 12:36 | 36.95021 | 117.21598 | 1612 ft | 120 kts | 184° |
| 2026-04-25 12:36 | 36.94173 | 117.21598 | 1447 ft | 121 kts | 184° |
| 2026-04-25 12:37 | 36.93323 | 117.21599 | 1281 ft | 122 kts | 183° |
| 2026-04-25 12:37 | 36.92467 | 117.21600 | 1114 ft | 123 kts | 183° |
| 2026-04-25 12:37 | 36.91608 | 117.21599 | 941 ft | 124 kts | 182° |
| 2026-04-25 12:37 | 36.90749 | 117.21600 | 784 ft | 124 kts | 182° |
| 2026-04-25 12:38 | 36.89880 | 117.21600 | 615 ft | 125 kts | 181° |
| 2026-04-25 12:38 | 36.89005 | 117.21599 | 449 ft | 125 kts | 181° |
| 2026-04-25 12:38 | 36.88120 | 117.21601 | 302 ft | 130 kts | 180° |
| 2026-04-25 12:38 | 36.87238 | 117.21600 | 101 ft | 129 kts | 182° |
| 2026-04-25 12:39 | 36.86442 | 117.21601 | 90 ft | 91 kts | 180° |
| 2026-04-25 12:39 | 36.85971 | 117.21596 | 90 ft | 39 kts | 180° |
| 2026-04-25 12:39 | 36.85751 | 117.21597 | 90 ft | 26 kts | 178° |
| 2026-04-25 12:39 | 36.85581 | 117.21566 | 90 ft | 23 kts | 200° |
| 2026-04-25 12:40 | 36.85488 | 117.21514 | 90 ft | 7 kts | 207° |
| 2026-04-25 12:40 | 36.85451 | 117.21491 | 90 ft | 0 kts | 207° |
| 2026-04-25 12:41 | 36.85442 | 117.21484 | 90 ft | 4 kts | 207° |
| 2026-04-25 12:41 | 36.85406 | 117.21451 | 90 ft | 8 kts | 238° |
| 2026-04-25 12:41 | 36.85393 | 117.21356 | 90 ft | 13 kts | 263° |
| 2026-04-25 12:41 | 36.85439 | 117.21265 | 90 ft | 16 kts | 358° |
| 2026-04-25 12:42 | 36.85566 | 117.21270 | 90 ft | 20 kts | 358° |
| 2026-04-25 12:42 | 36.85643 | 117.21268 | 90 ft | 14 kts | 359° |
| 2026-04-25 12:42 | 36.85750 | 117.21266 | 90 ft | 11 kts | 359° |
| 2026-04-25 12:42 | 36.85828 | 117.21268 | 90 ft | 11 kts | 1° |
| 2026-04-25 12:43 | 36.85893 | 117.21271 | 90 ft | 0 kts | 0° |
| 2026-04-25 12:43 | 36.85898 | 117.21271 | 90 ft | 1 kts | 0° |
| 2026-04-25 12:43 | 36.85934 | 117.21267 | 90 ft | 4 kts | 343° |
| 2026-04-25 12:44 | 36.85966 | 117.21237 | 90 ft | 6 kts | 311° |
| 2026-04-25 12:44 | 36.85979 | 117.21183 | 90 ft | 6 kts | 270° |
| 2026-04-25 12:44 | 36.85979 | 117.21152 | 90 ft | 0 kts | 270° |